Time;durP1;ratioP1;P1;durP2;ratioP2;P2;SDS_P1;SDS_P2;PMS_P1;PMS_P2;Temp;Humidity;BMP_temperature;BMP_pressure;BME280_temperature;BME280_humidity;BME280_pressure;Samples;Min_cycle;Max_cycle;Signal;HPM_P1;HPM_P2
2021/09/01 00:00:03;;;;;;;;;;;;;;;15.41;100.00;100810.22;5073055;28;19924;-79
2021/09/01 00:02:40;;;;;;;;;;;;;;;15.64;100.00;100801.19;5073919;28;19946;-79
2021/09/01 00:05:07;;;;;;;;;;;;;;;15.69;100.00;100798.69;5072948;28;19925;-79
2021/09/01 00:07:34;;;;;;;;;;;;;;;15.40;100.00;100796.56;5073954;28;19970;-79
2021/09/01 00:10:03;;;;;;;;;;;;;;;15.18;100.00;100795.88;5073936;28;20394;-79
2021/09/01 00:12:31;;;;;;;;;;;;;;;15.40;100.00;100797.38;5089718;28;19928;-79
2021/09/01 00:14:58;;;;;;;;;;;;;;;15.27;100.00;100787.78;5055969;28;20270;-79
2021/09/01 00:17:24;;;;;;;;;;;;;;;15.20;100.00;100793.47;5072917;28;19978;-79
2021/09/01 00:19:52;;;;;;;;;;;;;;;15.31;100.00;100793.38;5074202;28;19974;-79
2021/09/01 00:22:19;;;;;;;;;;;;;;;15.23;100.00;100791.84;5052405;28;19925;-79
2021/09/01 00:24:46;;;;;;;;;;;;;;;15.20;100.00;100787.84;5100376;28;19928;-79
2021/09/01 00:27:13;;;;;;;;;;;;;;;15.15;100.00;100793.91;5052570;28;19925;-79
2021/09/01 00:29:40;;;;;;;;;;;;;;;14.87;100.00;100785.66;5048702;28;19925;-80
2021/09/01 00:32:07;;;;;;;;;;;;;;;14.97;100.00;100783.97;5073599;28;19924;-79
2021/09/01 00:34:34;;;;;;;;;;;;;;;15.13;100.00;100782.25;5072682;28;20007;-80
2021/09/01 00:37:01;;;;;;;;;;;;;;;15.00;100.00;100786.78;5073671;28;19925;-79
2021/09/01 00:39:28;;;;;;;;;;;;;;;15.23;100.00;100791.84;5073785;28;19928;-79
2021/09/01 00:41:57;;;;;;;;;;;;;;;15.10;100.00;100794.31;5072370;28;19955;-79
2021/09/01 00:44:28;;;;;;;;;;;;;;;15.15;100.00;100791.09;5071637;28;19925;-79
2021/09/01 00:46:59;;;;;;;;;;;;;;;15.15;100.00;100788.28;5072086;28;19947;-79
2021/09/01 00:49:27;;;;;;;;;;;;;;;15.35;100.00;100786.50;5072214;28;19928;-79
2021/09/01 00:51:54;;;;;;;;;;;;;;;15.15;100.00;100785.44;5089287;28;20402;-79
2021/09/01 00:54:22;;;;;;;;;;;;;;;15.23;100.00;100798.28;5073296;28;19990;-79
2021/09/01 00:56:53;;;;;;;;;;;;;;;15.28;100.00;100800.63;5073682;28;19966;-79
2021/09/01 00:59:22;;;;;;;;;;;;;;;15.42;100.00;100797.75;5089004;28;20388;-79
2021/09/01 01:01:50;;;;;;;;;;;;;;;15.34;100.00;100798.19;5072433;28;19924;-79
2021/09/01 01:04:17;;;;;;;;;;;;;;;15.35;100.00;100799.78;5105937;28;20359;-79
2021/09/01 01:06:44;;;;;;;;;;;;;;;15.01;100.00;100796.03;5072071;28;19935;-79
2021/09/01 01:09:12;;;;;;;;;;;;;;;15.13;100.00;100793.50;5072098;28;20280;-79
2021/09/01 01:11:58;;;;;;;;;;;;;;;15.25;100.00;100798.63;5072209;28;19975;-79
2021/09/01 01:14:26;;;;;;;;;;;;;;;15.37;100.00;100805.81;5055470;28;20019;-79
2021/09/01 01:16:53;;;;;;;;;;;;;;;15.34;100.00;100798.19;5073196;28;20400;-79
2021/09/01 01:19:20;;;;;;;;;;;;;;;15.18;100.00;100809.16;5072335;28;19971;-80
2021/09/01 01:21:47;;;;;;;;;;;;;;;15.27;100.00;100809.50;5072162;28;19931;-79
2021/09/01 01:24:16;;;;;;;;;;;;;;;15.18;100.00;100809.97;5055507;28;20364;-79
2021/09/01 01:26:43;;;;;;;;;;;;;;;15.22;100.00;100798.69;5073196;28;20011;-79
2021/09/01 01:29:10;;;;;;;;;;;;;;;15.30;100.00;100803.03;5071973;28;20422;-79
2021/09/01 01:31:37;;;;;;;;;;;;;;;15.22;100.00;100793.84;5073043;28;19970;-79
2021/09/01 01:34:15;;;;;;;;;;;;;;;15.18;100.00;100793.06;5075033;28;20502;-79
2021/09/01 01:36:42;;;;;;;;;;;;;;;15.25;100.00;100783.78;5075246;28;20040;-79
2021/09/01 01:39:09;;;;;;;;;;;;;;;15.28;100.00;100783.72;5075730;28;20005;-79
2021/09/01 01:41:35;;;;;;;;;;;;;;;15.19;100.00;100786.22;5075529;28;19974;-79
2021/09/01 01:44:03;;;;;;;;;;;;;;;15.13;100.00;100779.41;5076499;28;19955;-79
2021/09/01 01:46:30;;;;;;;;;;;;;;;15.14;100.00;100783.88;5075270;28;19931;-79
2021/09/01 01:48:57;;;;;;;;;;;;;;;15.12;100.00;100783.47;5075139;28;19928;-79
2021/09/01 01:51:24;;;;;;;;;;;;;;;14.93;100.00;100784.00;5065834;28;19948;-79
2021/09/01 01:53:51;;;;;;;;;;;;;;;14.78;100.00;100788.13;5104528;28;20387;-79
2021/09/01 01:56:18;;;;;;;;;;;;;;;14.90;100.00;100796.09;5076389;28;19948;-79
2021/09/01 01:58:45;;;;;;;;;;;;;;;14.53;100.00;100793.06;5075230;28;19928;-79
2021/09/01 02:01:12;;;;;;;;;;;;;;;14.59;100.00;100805.50;5076239;28;20013;-79
2021/09/01 02:03:39;;;;;;;;;;;;;;;14.15;100.00;100799.59;5076655;28;19925;-79
2021/09/01 02:06:06;;;;;;;;;;;;;;;14.46;100.00;100801.53;5076460;28;20027;-79
2021/09/01 02:08:33;;;;;;;;;;;;;;;14.83;100.00;100800.97;5069628;28;20291;-79
2021/09/01 02:11:00;;;;;;;;;;;;;;;14.96;100.00;100800.06;5069295;28;19928;-79
2021/09/01 02:13:28;;;;;;;;;;;;;;;14.86;100.00;100789.66;5091776;28;19924;-79
2021/09/01 02:15:55;;;;;;;;;;;;;;;15.14;100.00;100797.13;5075393;28;20066;-79
2021/09/01 02:18:23;;;;;;;;;;;;;;;15.18;100.00;100784.63;5071872;28;19929;-79
2021/09/01 02:20:50;;;;;;;;;;;;;;;15.19;100.00;100786.22;5066059;28;20380;-79
2021/09/01 02:23:17;;;;;;;;;;;;;;;15.27;100.00;100782.13;5058325;28;19983;-79
2021/09/01 02:25:44;;;;;;;;;;;;;;;15.24;100.00;100782.97;5091725;28;19983;-80
2021/09/01 02:28:11;;;;;;;;;;;;;;;14.96;100.00;100791.63;5074595;28;20154;-80
2021/09/01 02:30:38;;;;;;;;;;;;;;;14.85;100.00;100799.34;5058343;28;20258;-79
2021/09/01 02:33:05;;;;;;;;;;;;;;;14.98;100.00;100786.38;5076034;28;19928;-79
2021/09/01 02:35:32;;;;;;;;;;;;;;;14.91;100.00;100785.63;5075703;28;19928;-79
2021/09/01 02:37:59;;;;;;;;;;;;;;;15.12;100.00;100786.28;5074716;28;19925;-79
2021/09/01 02:40:26;;;;;;;;;;;;;;;15.12;100.00;100797.53;5075558;28;19932;-79
2021/09/01 02:42:53;;;;;;;;;;;;;;;14.99;100.00;100788.00;5075737;28;19931;-79
2021/09/01 02:45:20;;;;;;;;;;;;;;;15.36;100.00;100784.47;5075472;28;19977;-79
2021/09/01 02:47:47;;;;;;;;;;;;;;;15.37;100.00;100783.28;5075543;28;20007;-79
2021/09/01 02:50:15;;;;;;;;;;;;;;;15.55;100.00;100784.75;5075556;28;19931;-79
2021/09/01 02:52:42;;;;;;;;;;;;;;;15.45;100.00;100785.63;5090928;28;19931;-80
2021/09/01 02:55:10;;;;;;;;;;;;;;;15.46;100.00;100790.06;5108267;28;19925;-79
2021/09/01 02:57:38;;;;;;;;;;;;;;;15.51;100.00;100783.19;5075166;28;20330;-79
2021/09/01 03:00:05;;;;;;;;;;;;;;;15.44;100.00;100786.06;5074483;28;19974;-79
2021/09/01 03:02:33;;;;;;;;;;;;;;;15.55;100.00;100786.78;5054001;28;20355;-79
2021/09/01 03:04:59;;;;;;;;;;;;;;;15.57;100.00;100779.50;5074195;28;20245;-79
2021/09/01 03:07:27;;;;;;;;;;;;;;;15.72;100.00;100780.97;5074260;28;19939;-79
2021/09/01 03:09:54;;;;;;;;;;;;;;;15.75;100.00;100777.31;5073785;28;19924;-79
2021/09/01 03:12:21;;;;;;;;;;;;;;;15.58;100.00;100771.84;5074143;28;19931;-79
2021/09/01 03:14:48;;;;;;;;;;;;;;;15.71;100.00;100765.28;5075196;28;19948;-79
2021/09/01 03:17:15;;;;;;;;;;;;;;;15.58;100.00;100767.03;5074517;28;19924;-79
2021/09/01 03:19:42;;;;;;;;;;;;;;;15.61;100.00;100762.56;5067550;28;19932;-79
2021/09/01 03:22:10;;;;;;;;;;;;;;;15.55;100.00;100765.03;5057071;28;20409;-79
2021/09/01 03:24:37;;;;;;;;;;;;;;;15.57;100.00;100759.78;5020813;28;19935;-79
2021/09/01 03:27:04;;;;;;;;;;;;;;;15.58;100.00;100764.22;5054851;28;20279;-79
2021/09/01 03:29:31;;;;;;;;;;;;;;;15.65;100.00;100755.69;5055036;28;20318;-79
2021/09/01 03:31:59;;;;;;;;;;;;;;;15.67;100.00;100755.25;5105402;28;20295;-79
2021/09/01 03:34:26;;;;;;;;;;;;;;;15.71;100.00;100756.81;5053452;28;20384;-79
2021/09/01 03:36:54;;;;;;;;;;;;;;;15.67;100.00;100747.63;5069113;28;20332;-79
2021/09/01 03:39:21;;;;;;;;;;;;;;;15.61;100.00;100746.47;5086830;28;20280;-79
2021/09/01 03:41:48;;;;;;;;;;;;;;;15.51;100.00;100743.75;5069819;28;19924;-79
2021/09/01 03:44:15;;;;;;;;;;;;;;;15.62;100.00;100747.25;5107299;28;20378;-79
2021/09/01 03:46:42;;;;;;;;;;;;;;;15.52;100.00;100736.91;5073224;28;19930;-79
2021/09/01 03:49:16;;;;;;;;;;;;;;;15.49;100.00;100737.72;5074198;28;20497;-79
2021/09/01 03:51:47;;;;;;;;;;;;;;;15.60;100.00;100744.84;5074625;28;19931;-79
2021/09/01 03:54:14;;;;;;;;;;;;;;;15.67;100.00;100738.34;5067954;28;20389;-79
2021/09/01 03:56:41;;;;;;;;;;;;;;;15.51;100.00;100736.09;5080841;28;19924;-79
2021/09/01 03:59:08;;;;;;;;;;;;;;;15.56;100.00;100732.81;5073043;28;19948;-79
2021/09/01 04:01:36;;;;;;;;;;;;;;;15.74;100.00;100727.00;5073123;28;19924;-79
2021/09/01 04:04:04;;;;;;;;;;;;;;;15.75;100.00;100729.41;5072999;28;19935;-79
2021/09/01 04:06:32;;;;;;;;;;;;;;;15.91;100.00;100718.38;5072973;28;20311;-79
2021/09/01 04:08:59;;;;;;;;;;;;;;;15.86;100.00;100727.28;5089253;28;19974;-79
2021/09/01 04:11:27;;;;;;;;;;;;;;;15.88;100.00;100727.66;5072890;28;19925;-80
2021/09/01 04:13:54;;;;;;;;;;;;;;;15.91;100.00;100732.47;5074100;28;19948;-79
2021/09/01 04:16:21;;;;;;;;;;;;;;;15.80;100.00;100728.13;5073913;28;20376;-79
2021/09/01 04:18:48;;;;;;;;;;;;;;;15.76;100.00;100725.38;5106533;28;20376;-80
2021/09/01 04:21:15;;;;;;;;;;;;;;;15.89;100.00;100723.63;5089610;28;20433;-79
2021/09/01 04:23:43;;;;;;;;;;;;;;;15.88;100.00;100721.22;5072726;28;19924;-79
2021/09/01 04:26:10;;;;;;;;;;;;;;;15.91;100.00;100726.81;5073872;28;20426;-79
2021/09/01 04:28:37;;;;;;;;;;;;;;;15.81;100.00;100724.91;5048861;28;20023;-79
2021/09/01 04:31:04;;;;;;;;;;;;;;;16.01;100.00;100723.06;5067179;28;20015;-80
2021/09/01 04:33:31;;;;;;;;;;;;;;;15.96;100.00;100717.88;5072797;28;19925;-79
2021/09/01 04:35:59;;;;;;;;;;;;;;;16.01;100.00;100714.59;5074022;28;19969;-79
2021/09/01 04:38:26;;;;;;;;;;;;;;;15.89;100.00;100708.69;5072948;28;19924;-79
2021/09/01 04:40:53;;;;;;;;;;;;;;;15.95;100.00;100716.28;5056164;28;19925;-79
2021/09/01 04:43:20;;;;;;;;;;;;;;;15.85;100.00;100720.03;5055905;28;19925;-79
2021/09/01 04:45:47;;;;;;;;;;;;;;;15.84;100.00;100717.66;5072812;28;20073;-79
2021/09/01 04:48:15;;;;;;;;;;;;;;;15.91;100.00;100712.72;5072353;28;20265;-79
2021/09/01 04:50:42;;;;;;;;;;;;;;;15.94;100.00;100708.25;5089128;28;19925;-79
2021/09/01 04:53:09;;;;;;;;;;;;;;;15.95;100.00;100713.47;5072740;28;19928;-79
2021/09/01 04:55:37;;;;;;;;;;;;;;;15.95;100.00;100710.66;5072330;28;19956;-79
2021/09/01 04:58:04;;;;;;;;;;;;;;;15.80;100.00;100720.50;5072500;28;20011;-79
2021/09/01 05:00:31;;;;;;;;;;;;;;;15.77;100.00;100712.88;5073626;28;19924;-79
2021/09/01 05:02:58;;;;;;;;;;;;;;;15.82;100.00;100722.88;5072641;28;19924;-80
2021/09/01 05:05:25;;;;;;;;;;;;;;;15.89;100.00;100717.97;5073502;28;19967;-79
2021/09/01 05:07:54;;;;;;;;;;;;;;;15.90;100.00;100713.16;5073683;28;19924;-79
2021/09/01 05:10:21;;;;;;;;;;;;;;;15.99;100.00;100722.69;5076258;28;19935;-79
2021/09/01 05:12:50;;;;;;;;;;;;;;;15.88;100.00;100710.75;5069964;28;20241;-79
2021/09/01 05:15:17;;;;;;;;;;;;;;;15.95;100.00;100704.22;5040034;28;20020;-80
2021/09/01 05:17:44;;;;;;;;;;;;;;;15.87;100.00;100720.41;5076808;28;20317;-79
2021/09/01 05:20:11;;;;;;;;;;;;;;;15.81;100.00;100719.25;5092865;28;20471;-79
2021/09/01 05:22:42;;;;;;;;;;;;;;;15.92;100.00;100717.13;5055874;28;19925;-79
2021/09/01 05:25:11;;;;;;;;;;;;;;;16.00;100.00;100712.22;5066926;28;19931;-79
2021/09/01 05:27:40;;;;;;;;;;;;;;;15.99;100.00;100716.25;5076110;28;19936;-79
2021/09/01 05:30:09;;;;;;;;;;;;;;;15.99;100.00;100721.91;5055748;28;19932;-80
2021/09/01 05:32:38;;;;;;;;;;;;;;;15.81;100.00;100727.72;5067616;28;19924;-79
2021/09/01 05:35:06;;;;;;;;;;;;;;;15.69;100.00;100725.44;5075824;28;19932;-79
2021/09/01 05:37:34;;;;;;;;;;;;;;;15.73;100.00;100728.22;5059359;28;20292;-79
2021/09/01 05:40:02;;;;;;;;;;;;;;;15.78;100.00;100730.59;5075821;28;19940;-78
2021/09/01 05:42:30;;;;;;;;;;;;;;;15.91;100.00;100740.91;5076195;28;19931;-80
2021/09/01 05:44:58;;;;;;;;;;;;;;;15.81;100.00;100733.34;5075573;28;19928;-79
2021/09/01 05:47:26;;;;;;;;;;;;;;;15.72;100.00;100727.41;5076867;28;19925;-83
2021/09/01 05:49:54;;;;;;;;;;;;;;;15.67;100.00;100727.88;5075877;28;19931;-82
2021/09/01 05:52:23;;;;;;;;;;;;;;;15.84;100.00;100732.53;5074094;28;19931;-81
2021/09/01 05:54:51;;;;;;;;;;;;;;;15.84;100.00;100728.91;5076854;28;19931;-82
2021/09/01 05:57:30;;;;;;;;;;;;;;;15.66;100.00;100720.63;5076803;28;19991;-81
2021/09/01 06:00:03;;;;;;;;;;;;;;;15.94;100.00;100731.63;5063885;28;19999;-85
2021/09/01 06:02:42;;;;;;;;;;;;;;;15.96;100.00;100717.09;5074455;28;20299;-87
2021/09/01 06:05:10;;;;;;;;;;;;;;;16.02;100.00;100712.59;5075319;28;19925;-86
2021/09/01 06:07:49;;;;;;;;;;;;;;;15.82;100.00;100717.25;5068105;28;19925;-86
2021/09/01 06:10:20;;;;;;;;;;;;;;;15.92;100.00;100717.13;5090026;28;19925;-86
2021/09/01 06:12:49;;;;;;;;;;;;;;;15.87;100.00;100717.59;5073496;28;19952;-85
2021/09/01 06:15:17;;;;;;;;;;;;;;;15.96;100.00;100723.53;5068374;28;19924;-86
2021/09/01 06:17:45;;;;;;;;;;;;;;;15.95;100.00;100719.09;5074718;28;19924;-85
2021/09/01 06:20:12;;;;;;;;;;;;;;;16.11;100.00;100727.00;5046165;28;20392;-85
2021/09/01 06:22:39;;;;;;;;;;;;;;;15.71;100.00;100728.66;5074135;28;19932;-86
2021/09/01 06:25:07;;;;;;;;;;;;;;;15.89;100.00;100734.88;5083120;28;20031;-85
2021/09/01 06:27:34;;;;;;;;;;;;;;;15.69;100.00;100736.72;5087816;28;20441;-86
2021/09/01 06:30:01;;;;;;;;;;;;;;;15.95;100.00;100738.03;5054863;28;19925;-86
2021/09/01 06:32:54;;;;;;;;;;;;;;;16.04;100.00;100733.50;5048717;28;19978;-85
2021/09/01 06:35:21;;;;;;;;;;;;;;;16.11;100.00;100729.81;5058650;28;20371;-86
2021/09/01 06:37:50;;;;;;;;;;;;;;;15.80;100.00;100743.03;5042099;28;20409;-86
2021/09/01 06:40:18;;;;;;;;;;;;;;;16.07;100.00;100741.13;5058090;28;19932;-86
2021/09/01 06:42:46;;;;;;;;;;;;;;;16.16;100.00;100740.63;5041326;28;19931;-86
2021/09/01 06:45:13;;;;;;;;;;;;;;;15.88;100.00;100743.75;5054546;28;19924;-86
2021/09/01 06:47:41;;;;;;;;;;;;;;;15.92;100.00;100747.34;5091199;28;19924;-86
2021/09/01 06:50:11;;;;;;;;;;;;;;;15.81;100.00;100755.91;5074715;28;19924;-86
2021/09/01 06:52:39;;;;;;;;;;;;;;;15.94;100.00;100748.53;5071287;28;19928;-90
2021/09/01 06:55:08;;;;;;;;;;;;;;;15.66;100.00;100754.44;5038050;28;19998;-88
2021/09/01 06:57:36;;;;;;;;;;;;;;;15.82;100.00;100751.88;5071636;28;20054;-82
2021/09/01 07:00:05;;;;;;;;;;;;;;;15.79;100.00;100760.38;5071148;28;19925;-83
2021/09/01 07:02:33;;;;;;;;;;;;;;;15.79;100.00;100752.72;5072171;28;19928;-82
2021/09/01 07:05:01;;;;;;;;;;;;;;;15.72;100.00;100758.41;5065175;28;20028;-82
2021/09/01 07:07:28;;;;;;;;;;;;;;;15.90;100.00;100769.53;5052535;28;19928;-82
2021/09/01 07:09:55;;;;;;;;;;;;;;;15.85;100.00;100767.97;5074801;28;19932;-83
2021/09/01 07:12:23;;;;;;;;;;;;;;;15.56;100.00;100768.66;5094314;28;20330;-83
2021/09/01 07:14:50;;;;;;;;;;;;;;;15.70;100.00;100777.78;5037340;28;19924;-83
2021/09/01 07:17:17;;;;;;;;;;;;;;;15.65;100.00;100769.78;5069766;28;20020;-83
2021/09/01 07:19:44;;;;;;;;;;;;;;;15.83;100.00;100770.38;5053879;28;19925;-83
2021/09/01 07:22:11;;;;;;;;;;;;;;;15.78;100.00;100767.25;5035716;28;19924;-83
2021/09/01 07:24:38;;;;;;;;;;;;;;;15.89;100.00;100768.72;5054592;28;19936;-83
2021/09/01 07:27:05;;;;;;;;;;;;;;;15.90;100.00;100767.47;5079543;28;19924;-83
2021/09/01 07:29:33;;;;;;;;;;;;;;;15.93;100.00;100782.78;5090557;28;20019;-83
2021/09/01 07:32:00;;;;;;;;;;;;;;;15.98;100.00;100771.03;5073236;28;19924;-83
2021/09/01 07:34:27;;;;;;;;;;;;;;;15.95;100.00;100771.88;5037010;28;19933;-83
2021/09/01 07:36:54;;;;;;;;;;;;;;;15.92;100.00;100762.25;5082369;28;19931;-82
2021/09/01 07:39:21;;;;;;;;;;;;;;;16.03;100.00;100767.75;5073379;28;20011;-82
2021/09/01 07:41:48;;;;;;;;;;;;;;;15.93;100.00;100758.19;5082334;28;19925;-82
2021/09/01 07:44:15;;;;;;;;;;;;;;;16.26;100.00;100765.06;5073272;28;19924;-82
2021/09/01 07:46:42;;;;;;;;;;;;;;;16.31;100.00;100766.63;5073319;28;19928;-82
2021/09/01 07:49:09;;;;;;;;;;;;;;;16.15;100.00;100762.38;5071838;28;19951;-80
2021/09/01 07:51:36;;;;;;;;;;;;;;;16.17;100.00;100764.78;5066276;28;19974;-81
2021/09/01 07:54:03;;;;;;;;;;;;;;;16.10;100.00;100762.03;5068100;28;19925;-81
2021/09/01 07:56:30;;;;;;;;;;;;;;;16.20;100.00;100756.28;5072539;28;19929;-81
2021/09/01 07:58:57;;;;;;;;;;;;;;;16.26;100.00;100759.44;5074191;28;19924;-81
2021/09/01 08:01:24;;;;;;;;;;;;;;;16.45;100.00;100767.28;5073745;28;20007;-81
2021/09/01 08:03:51;;;;;;;;;;;;;;;16.51;100.00;100761.97;5073368;28;19924;-81
2021/09/01 08:06:18;;;;;;;;;;;;;;;16.63;100.00;100761.41;5072892;28;19924;-81
2021/09/01 08:08:45;;;;;;;;;;;;;;;16.86;100.00;100758.63;5067843;28;20315;-81
2021/09/01 08:11:12;;;;;;;;;;;;;;;16.98;100.00;100760.91;5072902;28;19936;-81
2021/09/01 08:13:40;;;;;;;;;;;;;;;17.00;100.00;100769.72;5073941;28;20295;-81
2021/09/01 08:16:07;;;;;;;;;;;;;;;17.08;100.00;100757.91;5046668;28;19991;-81
2021/09/01 08:18:34;;;;;;;;;;;;;;;16.89;100.00;100763.47;5056076;28;20073;-81
2021/09/01 08:21:01;;;;;;;;;;;;;;;16.86;100.00;100764.28;5072997;28;19925;-81
2021/09/01 08:23:28;;;;;;;;;;;;;;;17.08;100.00;100759.94;5068288;28;20387;-82
2021/09/01 08:25:55;;;;;;;;;;;;;;;16.82;100.00;100763.53;5065037;28;19933;-82
2021/09/01 08:28:22;;;;;;;;;;;;;;;16.98;100.00;100772.19;5071930;28;20011;-82
2021/09/01 08:30:49;;;;;;;;;;;;;;;17.07;100.00;100764.00;5048146;28;20353;-81
2021/09/01 08:33:16;;;;;;;;;;;;;;;16.96;100.00;100763.34;5073268;28;19924;-81
2021/09/01 08:35:43;;;;;;;;;;;;;;;17.01;100.00;100765.69;5089560;28;19931;-86
2021/09/01 08:38:10;;;;;;;;;;;;;;;17.33;100.00;100760.31;5097240;28;19925;-82
2021/09/01 08:40:43;;;;;;;;;;;;;;;17.35;100.00;100767.16;5101252;28;19928;-90
2021/09/01 08:43:11;;;;;;;;;;;;;;;17.39;100.00;100770.72;5047187;28;20367;-88
2021/09/01 08:45:38;;;;;;;;;;;;;;;17.42;100.00;100764.19;5036111;28;19946;-91
2021/09/01 08:48:06;;;;;;;;;;;;;;;17.48;100.00;100764.53;5050535;28;20384;-88
2021/09/01 08:50:33;;;;;;;;;;;;;;;17.49;100.00;100769.75;5072001;28;19932;-86
2021/09/01 08:53:01;;;;;;;;;;;;;;;17.76;100.00;100781.00;5019307;28;20386;-84
2021/09/01 08:55:28;;;;;;;;;;;;;;;17.67;100.00;100786.41;5070713;28;19925;-85
2021/09/01 08:57:55;;;;;;;;;;;;;;;17.54;100.00;100785.41;5067513;28;20290;-84
2021/09/01 09:00:22;;;;;;;;;;;;;;;17.55;100.00;100779.34;5101886;28;19931;-89
2021/09/01 09:02:56;;;;;;;;;;;;;;;17.11;100.00;100779.66;5072903;28;19928;-89
2021/09/01 09:05:31;;;;;;;;;;;;;;;16.99;100.00;100779.44;5071034;28;19924;-89
2021/09/01 09:07:59;;;;;;;;;;;;;;;17.22;100.00;100773.84;5056008;28;19928;-89
2021/09/01 09:10:27;;;;;;;;;;;;;;;17.30;100.00;100778.13;5041736;28;20007;-86
2021/09/01 09:12:55;;;;;;;;;;;;;;;17.58;100.00;100777.69;5083099;28;19925;-84
2021/09/01 09:15:23;;;;;;;;;;;;;;;17.27;100.00;100788.28;5066890;28;19925;-85
2021/09/01 09:17:54;;;;;;;;;;;;;;;17.16;100.00;100790.44;5053774;28;20743;-86
2021/09/01 09:20:33;;;;;;;;;;;;;;;17.47;100.00;100797.66;5065754;28;20383;-83
2021/09/01 09:23:07;;;;;;;;;;;;;;;17.75;100.00;100788.69;5051553;28;19925;-90
2021/09/01 09:25:34;;;;;;;;;;;;;;;17.33;100.00;100788.56;5043492;28;19925;-89
2021/09/01 09:28:06;;;;;;;;;;;;;;;17.36;100.00;100788.53;5052670;28;19932;-91
2021/09/01 09:30:41;;;;;;;;;;;;;;;17.42;100.00;100791.66;5041519;28;20284;-88
2021/09/01 09:33:10;;;;;;;;;;;;;;;17.66;100.00;100790.50;5054575;28;19956;-89
2021/09/01 09:35:46;;;;;;;;;;;;;;;17.64;100.00;100787.28;5073043;28;19924;-91
2021/09/01 09:38:14;;;;;;;;;;;;;;;17.58;100.00;100789.00;5047508;28;20394;-90
2021/09/01 09:40:42;;;;;;;;;;;;;;;17.51;100.00;100786.28;5056121;28;19924;-92
2021/09/01 09:43:12;;;;;;;;;;;;;;;17.10;100.00;100794.19;5042291;28;19929;-92
2021/09/01 09:45:40;;;;;;;;;;;;;;;17.31;100.00;100791.03;5056008;28;20385;-81
2021/09/01 09:48:08;;;;;;;;;;;;;;;17.18;100.00;100792.84;5071755;28;19924;-81
2021/09/01 09:50:35;;;;;;;;;;;;;;;17.27;100.00;100805.22;5072171;28;19924;-83
2021/09/01 09:53:02;;;;;;;;;;;;;;;17.23;100.00;100801.66;5059508;28;20019;-81
2021/09/01 09:55:29;;;;;;;;;;;;;;;17.04;100.00;100805.16;5073845;28;19929;-82
2021/09/01 09:58:00;;;;;;;;;;;;;;;17.23;100.00;100801.66;5058823;28;19925;-82
2021/09/01 10:00:27;;;;;;;;;;;;;;;17.38;100.00;100797.38;5099612;28;19930;-83
2021/09/01 10:02:54;;;;;;;;;;;;;;;17.23;100.00;100796.00;5074566;28;19932;-83
2021/09/01 10:05:23;;;;;;;;;;;;;;;17.51;100.00;100789.09;5071678;28;19924;-83
2021/09/01 10:07:51;;;;;;;;;;;;;;;17.65;100.00;100788.88;5062511;28;20023;-82
2021/09/01 10:10:21;;;;;;;;;;;;;;;17.82;100.00;100776.44;5059015;28;19956;-84
2021/09/01 10:12:48;;;;;;;;;;;;;;;17.84;100.00;100788.13;5087060;28;20388;-83
2021/09/01 10:15:24;;;;;;;;;;;;;;;17.49;100.00;100788.75;5070253;28;20327;-85
2021/09/01 10:18:01;;;;;;;;;;;;;;;17.84;100.00;100783.25;5053693;28;19929;-84
2021/09/01 10:20:29;;;;;;;;;;;;;;;18.01;100.00;100784.16;5079594;28;19931;-84
2021/09/01 10:23:01;;;;;;;;;;;;;;;18.04;100.00;100780.47;5063043;28;19932;-84
2021/09/01 10:25:34;;;;;;;;;;;;;;;18.29;100.00;100779.97;5071421;28;19974;-87
2021/09/01 10:28:20;;;;;;;;;;;;;;;18.34;100.00;100777.47;5108078;28;19960;-82
2021/09/01 10:31:06;;;;;;;;;;;;;;;18.06;100.00;100769.53;5088056;28;19924;-83
2021/09/01 10:33:34;;;;;;;;;;;;;;;18.10;100.00;100766.63;5074106;28;20345;-82
2021/09/01 10:36:20;;;;;;;;;;;;;;;18.07;100.00;100764.69;5086669;28;19968;-83
2021/09/01 10:38:47;;;;;;;;;;;;;;;18.27;100.00;100768.28;5047339;28;20334;-83
2021/09/01 10:41:25;;;;;;;;;;;;;;;18.22;100.00;100761.09;5050938;28;19925;-83
2021/09/01 10:44:05;;;;;;;;;;;;;;;18.40;100.00;100760.78;5072352;28;19924;-79
2021/09/01 10:46:51;;;;;;;;;;;;;;;18.20;100.00;100760.75;5068622;28;19932;-82
2021/09/01 10:49:24;;;;;;;;;;;;;;;18.20;100.00;100757.13;5086697;28;19925;-80
2021/09/01 10:51:52;;;;;;;;;;;;;;;18.21;100.00;100764.38;5055878;28;20391;-81
2021/09/01 10:54:25;;;;;;;;;;;;;;;18.39;100.00;100770.53;5066679;28;20011;-81
2021/09/01 10:56:53;;;;;;;;;;;;;;;18.71;100.00;100760.09;5074023;28;20007;-81
2021/09/01 10:59:30;;;;;;;;;;;;;;;18.74;100.00;100761.25;5075757;28;19929;-81
2021/09/01 11:02:12;;;;;;;;;;;;;;;18.69;100.00;100759.72;5074288;28;20493;-81
2021/09/01 11:04:47;;;;;;;;;;;;;;;18.73;100.00;100759.66;5072961;28;20320;-81
2021/09/01 11:07:32;;;;;;;;;;;;;;;18.75;100.00;100757.97;5054749;28;20412;-81
2021/09/01 11:10:02;;;;;;;;;;;;;;;18.86;100.00;100750.03;5054898;28;19936;-81
2021/09/01 11:12:30;;;;;;;;;;;;;;;18.90;100.00;100762.06;5067198;28;19924;-80
2021/09/01 11:14:57;;;;;;;;;;;;;;;18.84;100.00;100751.72;5075005;28;19924;-80
2021/09/01 11:17:26;;;;;;;;;;;;;;;19.15;100.00;100745.31;5074547;28;20355;-80
2021/09/01 11:19:58;;;;;;;;;;;;;;;18.53;100.00;100748.38;5074664;28;19948;-80
2021/09/01 11:22:31;;;;;;;;;;;;;;;18.38;100.00;100758.41;5073851;28;19924;-84
2021/09/01 11:25:03;;;;;;;;;;;;;;;18.14;100.00;100756.84;5078276;28;19924;-83
2021/09/01 11:27:32;;;;;;;;;;;;;;;18.57;100.00;100759.63;5060974;28;19924;-83
2021/09/01 11:30:02;;;;;;;;;;;;;;;18.74;100.00;100759.22;5039849;28;19936;-83
2021/09/01 11:32:29;;;;;;;;;;;;;;;18.87;100.00;100762.97;5083190;28;19925;-83
2021/09/01 11:34:56;;;;;;;;;;;;;;;19.02;100.00;100761.38;5051057;28;19932;-81
2021/09/01 11:37:23;;;;;;;;;;;;;;;18.83;100.00;100759.41;5073515;28;19924;-81
2021/09/01 11:39:51;;;;;;;;;;;;;;;18.82;100.00;100757.84;5053546;28;20007;-81
2021/09/01 11:42:31;;;;;;;;;;;;;;;18.63;100.00;100763.53;5073789;28;20379;-82
2021/09/01 11:45:06;;;;;;;;;;;;;;;18.77;100.00;100764.00;5073600;28;19924;-81
2021/09/01 11:47:39;;;;;;;;;;;;;;;18.59;100.00;100760.78;5073290;28;19934;-81
2021/09/01 11:50:07;;;;;;;;;;;;;;;18.57;100.00;100763.22;5073641;28;20330;-81
2021/09/01 11:52:34;;;;;;;;;;;;;;;18.68;100.00;100760.97;5066686;28;19924;-81
2021/09/01 11:55:03;;;;;;;;;;;;;;;18.84;100.00;100763.84;5065652;28;20334;-82
2021/09/01 11:57:32;;;;;;;;;;;;;;;18.66;100.00;100765.50;5073447;28;19928;-83
2021/09/01 11:59:59;;;;;;;;;;;;;;;18.67;100.00;100762.22;5073598;28;19925;-80
2021/09/01 12:02:31;;;;;;;;;;;;;;;18.79;100.00;100760.75;5073214;28;19928;-83
2021/09/01 12:04:58;;;;;;;;;;;;;;;18.73;100.00;100760.47;5072953;28;19971;-79
2021/09/01 12:07:30;;;;;;;;;;;;;;;18.76;100.00;100762.41;5054920;28;19924;-79
2021/09/01 12:10:04;;;;;;;;;;;;;;;18.65;100.00;100766.72;5066320;28;19928;-80
2021/09/01 12:12:35;;;;;;;;;;;;;;;18.47;100.00;100772.75;5068945;28;19924;-82
2021/09/01 12:15:13;;;;;;;;;;;;;;;18.45;100.00;100769.56;5052951;28;19925;-80
2021/09/01 12:17:41;;;;;;;;;;;;;;;18.30;100.00;100775.91;5062372;28;19935;-79
2021/09/01 12:20:12;;;;;;;;;;;;;;;18.48;100.00;100771.53;5064559;28;19935;-80
2021/09/01 12:22:41;;;;;;;;;;;;;;;18.12;100.00;100767.78;5067544;28;19924;-80
2021/09/01 12:25:14;;;;;;;;;;;;;;;18.42;100.00;100778.94;5072639;28;20724;-80
2021/09/01 12:28:04;;;;;;;;;;;;;;;17.94;100.00;100773.00;5038328;28;20380;-80
2021/09/01 12:30:35;;;;;;;;;;;;;;;18.01;100.00;100775.69;5094361;28;19932;-79
2021/09/01 12:33:04;;;;;;;;;;;;;;;17.94;100.00;100781.47;5071694;28;19924;-79
2021/09/01 12:35:33;;;;;;;;;;;;;;;18.46;100.00;100773.19;5037882;28;19964;-79